createdAt,value
2017-12-14T00:01:35.561Z,82.30
2017-12-14T00:04:03.791Z,81.51
2017-12-14T00:06:32.073Z,80.85
2017-12-14T00:09:00.323Z,80.98
2017-12-14T00:11:28.632Z,80.53
2017-12-14T00:13:56.901Z,80.15
2017-12-14T00:16:25.158Z,80.42
2017-12-14T00:18:53.436Z,80.72
2017-12-14T00:21:21.746Z,80.83
2017-12-14T00:23:50.043Z,81.13
2017-12-14T00:26:18.316Z,81.42
2017-12-14T00:28:46.591Z,81.53
2017-12-14T00:31:14.846Z,81.72
2017-12-14T00:33:43.116Z,81.93
2017-12-14T00:36:11.414Z,82.20
2017-12-14T00:38:40.227Z,82.27
2017-12-14T00:41:08.521Z,82.20
2017-12-14T00:43:36.780Z,81.96
2017-12-14T00:46:05.076Z,82.10
2017-12-14T00:48:33.333Z,82.08
2017-12-14T00:51:01.616Z,82.14
2017-12-14T00:53:29.916Z,82.06
2017-12-14T00:55:58.213Z,81.96
2017-12-14T00:58:26.463Z,81.74
2017-12-14T01:00:54.760Z,81.63
2017-12-14T01:03:23.044Z,81.28
2017-12-14T01:05:51.295Z,81.38
2017-12-14T01:08:19.615Z,80.95
2017-12-14T01:10:47.855Z,81.22
2017-12-14T01:13:16.167Z,81.32
2017-12-14T01:15:44.438Z,81.31
2017-12-14T01:18:12.727Z,81.25
2017-12-14T01:20:40.983Z,81.02
2017-12-14T01:23:09.280Z,81.08
2017-12-14T01:25:37.543Z,81.01
2017-12-14T01:28:05.811Z,80.73
2017-12-14T01:30:34.077Z,80.64
2017-12-14T01:33:02.353Z,81.01
2017-12-14T01:35:30.607Z,81.03
2017-12-14T01:37:58.881Z,80.59
2017-12-14T01:40:27.988Z,80.37
2017-12-14T01:42:56.281Z,80.30
2017-12-14T01:45:24.546Z,80.09
2017-12-14T01:47:52.806Z,80.30
2017-12-14T01:50:21.099Z,80.11
2017-12-14T01:52:49.378Z,80.08
2017-12-14T01:55:17.769Z,80.10
2017-12-14T01:57:46.014Z,80.09
2017-12-14T02:00:14.413Z,80.26
2017-12-14T02:02:42.690Z,80.40
2017-12-14T02:05:10.963Z,80.45
2017-12-14T02:07:39.227Z,80.70
2017-12-14T02:10:07.520Z,80.57
2017-12-14T02:12:35.796Z,80.61
2017-12-14T02:15:04.076Z,80.31
2017-12-14T02:17:32.347Z,80.11
2017-12-14T02:20:00.631Z,80.07
2017-12-14T02:22:28.888Z,80.04
2017-12-14T02:24:57.203Z,79.90
2017-12-14T02:27:25.458Z,79.94
2017-12-14T02:29:53.711Z,79.97
2017-12-14T02:32:22.013Z,80.17
2017-12-14T02:34:50.279Z,80.41
2017-12-14T02:37:18.587Z,80.23
2017-12-14T02:39:46.846Z,80.03
2017-12-14T02:42:15.133Z,79.63
2017-12-14T02:44:43.388Z,79.35
2017-12-14T02:47:11.675Z,79.67
2017-12-14T02:49:39.935Z,79.79
2017-12-14T02:52:08.228Z,80.35
2017-12-14T02:54:36.486Z,81.04
2017-12-14T02:57:04.784Z,80.85
2017-12-14T02:59:33.038Z,80.70
2017-12-14T03:02:01.307Z,81.25
2017-12-14T03:04:29.587Z,81.48
2017-12-14T03:06:58.166Z,81.67
2017-12-14T03:09:26.451Z,82.08
2017-12-14T03:11:54.719Z,82.09
2017-12-14T03:14:23.005Z,81.61
2017-12-14T03:16:51.285Z,80.41
2017-12-14T03:19:19.588Z,79.73
2017-12-14T03:21:47.850Z,79.69
2017-12-14T03:24:16.130Z,80.03
2017-12-14T03:26:44.459Z,79.98
2017-12-14T03:29:12.758Z,80.19
2017-12-14T03:31:41.036Z,80.68
2017-12-14T03:34:09.306Z,81.19
2017-12-14T03:36:37.588Z,81.56
2017-12-14T03:39:05.867Z,81.53
2017-12-14T03:41:34.140Z,81.23
2017-12-14T03:44:02.426Z,80.67
2017-12-14T03:46:30.696Z,79.81
2017-12-14T03:48:58.970Z,79.17
2017-12-14T03:51:27.253Z,78.19
2017-12-14T03:53:55.527Z,77.81
2017-12-14T03:56:23.808Z,77.28
2017-12-14T03:58:52.120Z,77.67
2017-12-14T04:01:20.375Z,75.66
2017-12-14T04:03:48.663Z,74.11
2017-12-14T04:06:17.459Z,72.91
2017-12-14T04:08:45.718Z,68.85
2017-12-14T04:11:13.976Z,68.45
2017-12-14T04:13:42.239Z,69.96
2017-12-14T04:16:10.499Z,70.88
2017-12-14T04:18:38.798Z,70.54
2017-12-14T04:21:07.063Z,69.60
2017-12-14T04:23:35.312Z,70.19
2017-12-14T04:26:03.628Z,69.43
2017-12-14T04:28:31.891Z,68.67
2017-12-14T04:31:00.180Z,68.38
2017-12-14T04:33:28.431Z,68.19
2017-12-14T04:35:56.740Z,66.90
2017-12-14T04:38:25.007Z,66.37
2017-12-14T04:40:53.282Z,67.64
2017-12-14T04:43:21.572Z,66.46
2017-12-14T04:45:49.847Z,67.12
2017-12-14T04:48:18.103Z,67.50
2017-12-14T04:50:46.388Z,65.85
2017-12-14T04:53:15.588Z,65.96
2017-12-14T04:55:43.860Z,65.04
2017-12-14T04:58:12.159Z,64.12
2017-12-14T05:00:40.414Z,64.61
2017-12-14T05:03:08.691Z,64.22
2017-12-14T05:05:36.966Z,63.97
2017-12-14T05:08:06.299Z,63.77
2017-12-14T05:10:34.570Z,64.58
2017-12-14T05:13:02.847Z,65.10
2017-12-14T05:15:31.112Z,64.96
2017-12-14T05:18:00.439Z,65.36
2017-12-14T05:20:28.715Z,65.01
2017-12-14T05:22:56.992Z,65.46
2017-12-14T05:25:25.243Z,65.38
2017-12-14T05:27:53.494Z,65.54
2017-12-14T05:30:21.775Z,65.97
2017-12-14T05:32:50.047Z,65.15
2017-12-14T05:35:18.331Z,65.17
2017-12-14T05:37:46.607Z,65.26
2017-12-14T05:40:14.914Z,65.41
2017-12-14T05:42:43.155Z,65.65
2017-12-14T05:45:11.431Z,65.69
2017-12-14T05:47:40.531Z,65.58
2017-12-14T05:50:08.859Z,65.67
2017-12-14T05:52:37.103Z,65.13
2017-12-14T05:55:05.375Z,65.50
2017-12-14T05:57:33.647Z,65.39
2017-12-14T06:00:01.922Z,65.14
2017-12-14T06:02:30.245Z,65.04
2017-12-14T06:04:58.767Z,65.61
2017-12-14T06:07:27.073Z,65.54
2017-12-14T06:09:55.309Z,65.15
2017-12-14T06:12:23.680Z,65.50
2017-12-14T06:14:52.012Z,65.63
2017-12-14T06:17:20.266Z,65.51
2017-12-14T06:19:48.532Z,65.66
2017-12-14T06:22:16.817Z,65.61
2017-12-14T06:24:45.214Z,65.75
2017-12-14T06:27:13.536Z,66.03
2017-12-14T06:29:42.024Z,66.02
2017-12-14T06:32:10.282Z,66.04
2017-12-14T06:34:38.619Z,66.46
2017-12-14T06:37:06.884Z,66.81
2017-12-14T06:39:36.287Z,66.80
2017-12-14T06:42:05.115Z,66.73
2017-12-14T06:44:33.453Z,66.28
2017-12-14T06:47:01.728Z,66.68
2017-12-14T06:49:30.047Z,66.89
2017-12-14T06:51:58.352Z,67.13
2017-12-14T06:54:26.682Z,67.05
2017-12-14T06:56:55.032Z,67.00
2017-12-14T06:59:23.616Z,67.08
2017-12-14T07:01:51.881Z,67.32
2017-12-14T07:04:20.169Z,67.33
2017-12-14T07:06:48.463Z,67.33
2017-12-14T07:09:16.785Z,67.57
2017-12-14T07:11:45.116Z,67.07
2017-12-14T07:14:13.354Z,66.59
2017-12-14T07:16:41.632Z,67.27
2017-12-14T07:19:09.916Z,67.13
2017-12-14T07:21:38.178Z,67.12
2017-12-14T07:24:06.525Z,67.02
2017-12-14T07:26:34.814Z,66.66
2017-12-14T07:29:03.159Z,66.73
2017-12-14T07:31:31.450Z,66.70
2017-12-14T07:33:59.891Z,67.22
2017-12-14T07:36:28.137Z,68.07
2017-12-14T07:38:56.394Z,68.29
2017-12-14T07:41:24.731Z,68.90
2017-12-14T07:44:04.747Z,68.86
2017-12-14T07:46:35.458Z,68.81
2017-12-14T07:49:15.364Z,69.12
2017-12-14T07:51:43.639Z,69.34
2017-12-14T07:54:12.082Z,69.36
2017-12-14T07:56:40.407Z,69.66
2017-12-14T07:59:08.682Z,69.58
2017-12-14T08:01:37.052Z,69.60
2017-12-14T08:04:05.355Z,69.62
2017-12-14T08:06:33.647Z,69.61
2017-12-14T08:09:01.947Z,69.65
2017-12-14T08:11:30.243Z,69.79
2017-12-14T08:13:58.506Z,69.88
2017-12-14T08:16:26.828Z,70.31
2017-12-14T08:18:55.160Z,69.99
2017-12-14T08:21:23.404Z,70.16
2017-12-14T08:23:51.700Z,70.09
2017-12-14T08:26:19.955Z,70.09
2017-12-14T08:28:48.263Z,69.83
2017-12-14T08:31:16.544Z,69.90
2017-12-14T08:33:44.833Z,69.69
2017-12-14T08:36:13.091Z,69.84
2017-12-14T08:38:41.391Z,69.71
2017-12-14T08:41:09.850Z,70.21
2017-12-14T08:43:38.144Z,69.75
2017-12-14T08:46:06.401Z,69.94
2017-12-14T08:48:34.680Z,70.03
2017-12-14T08:51:03.831Z,69.40
2017-12-14T08:53:32.168Z,69.61
2017-12-14T08:56:00.430Z,70.01
2017-12-14T08:58:28.771Z,70.09
2017-12-14T09:00:57.020Z,69.78
2017-12-14T09:03:25.279Z,70.11
2017-12-14T09:05:53.551Z,69.87
2017-12-14T09:08:21.808Z,69.94
2017-12-14T09:10:50.084Z,69.23
2017-12-14T09:13:18.369Z,69.03
2017-12-14T09:15:46.658Z,69.24
2017-12-14T09:18:14.911Z,68.53
2017-12-14T09:20:43.257Z,68.38
2017-12-14T09:23:11.520Z,68.73
2017-12-14T09:25:39.832Z,68.41
2017-12-14T09:28:08.212Z,68.71
2017-12-14T09:30:36.468Z,68.39
2017-12-14T09:33:04.875Z,68.07
2017-12-14T09:35:33.172Z,68.01
2017-12-14T09:38:01.423Z,68.12
2017-12-14T09:40:29.716Z,67.93
2017-12-14T09:42:58.119Z,67.72
2017-12-14T09:45:26.345Z,68.08
2017-12-14T09:47:54.620Z,68.12
2017-12-14T09:50:22.885Z,67.90
2017-12-14T09:52:51.224Z,67.71
2017-12-14T09:55:19.519Z,67.81
2017-12-14T09:57:47.826Z,67.48
2017-12-14T10:00:16.102Z,67.50
2017-12-14T10:02:44.387Z,67.71
2017-12-14T10:05:12.654Z,67.84
2017-12-14T10:07:40.942Z,67.79
2017-12-14T10:10:09.215Z,67.58
2017-12-14T10:12:37.487Z,67.46
2017-12-14T10:15:05.774Z,67.42
2017-12-14T10:17:34.067Z,66.96
2017-12-14T10:20:03.033Z,67.75
2017-12-14T10:22:31.322Z,67.33
2017-12-14T10:24:59.604Z,66.94
2017-12-14T10:27:27.865Z,67.24
2017-12-14T10:29:56.136Z,67.24
2017-12-14T10:32:24.411Z,67.22
2017-12-14T10:34:52.699Z,67.25
2017-12-14T10:37:21.004Z,67.12
2017-12-14T10:39:49.342Z,67.37
2017-12-14T10:42:17.618Z,67.34
2017-12-14T10:44:45.973Z,66.53
2017-12-14T10:47:14.236Z,66.47
2017-12-14T10:49:42.543Z,66.44
2017-12-14T10:52:10.829Z,66.72
2017-12-14T10:54:39.142Z,66.50
2017-12-14T10:57:07.882Z,66.53
2017-12-14T10:59:36.948Z,66.55
2017-12-14T11:02:05.891Z,66.65
2017-12-14T11:04:34.152Z,66.39
2017-12-14T11:07:02.833Z,66.42
2017-12-14T11:09:31.264Z,66.39
2017-12-14T11:11:59.593Z,66.66
2017-12-14T11:14:27.862Z,66.87
2017-12-14T11:16:56.147Z,67.01
2017-12-14T11:19:24.418Z,67.50
2017-12-14T11:21:52.742Z,68.02
2017-12-14T11:24:21.011Z,68.57
2017-12-14T11:26:49.262Z,69.59
2017-12-14T11:29:17.636Z,70.18
2017-12-14T11:31:45.912Z,70.01
2017-12-14T11:34:14.443Z,70.97
2017-12-14T11:36:42.698Z,70.81
2017-12-14T11:39:11.037Z,69.71
2017-12-14T11:41:39.300Z,68.89
2017-12-14T11:44:07.608Z,69.23
2017-12-14T11:46:35.993Z,68.13
2017-12-14T11:49:05.186Z,68.60
2017-12-14T11:51:33.450Z,68.46
2017-12-14T11:54:01.922Z,69.16
2017-12-14T11:56:30.165Z,69.83
2017-12-14T11:58:59.351Z,70.10
2017-12-14T12:01:27.750Z,70.03
2017-12-14T12:03:56.107Z,69.29
2017-12-14T12:06:24.554Z,70.13
2017-12-14T12:08:52.948Z,70.07
2017-12-14T12:11:21.470Z,69.81
2017-12-14T12:13:49.748Z,68.87
2017-12-14T12:16:18.147Z,69.09
2017-12-14T12:18:46.431Z,67.99
2017-12-14T12:21:14.759Z,68.41
2017-12-14T12:23:43.042Z,67.52
2017-12-14T12:26:12.799Z,67.45
2017-12-14T12:28:42.215Z,67.73
2017-12-14T12:31:10.486Z,68.11
2017-12-14T12:33:39.272Z,68.76
2017-12-14T12:36:07.543Z,69.66
2017-12-14T12:38:35.837Z,70.72
2017-12-14T12:41:04.090Z,70.94
2017-12-14T12:43:32.426Z,71.51
2017-12-14T12:46:00.793Z,72.40
2017-12-14T12:48:29.320Z,72.33
2017-12-14T12:50:57.594Z,72.44
2017-12-14T12:53:25.958Z,72.46
2017-12-14T12:55:54.216Z,72.53
2017-12-14T12:58:22.505Z,72.89
2017-12-14T13:00:51.455Z,73.63
2017-12-14T13:03:19.801Z,73.40
2017-12-14T13:05:48.071Z,73.71
2017-12-14T13:08:16.342Z,74.02
2017-12-14T13:10:44.655Z,74.55
2017-12-14T13:13:12.999Z,74.13
2017-12-14T13:15:41.338Z,74.65
2017-12-14T13:18:09.659Z,74.49
2017-12-14T13:20:37.936Z,74.71
2017-12-14T13:23:06.213Z,74.84
2017-12-14T13:25:34.488Z,75.21
2017-12-14T13:28:02.795Z,75.11
2017-12-14T13:30:31.050Z,75.76
2017-12-14T13:32:59.344Z,75.91
2017-12-14T13:35:27.604Z,75.80
2017-12-14T13:37:55.881Z,77.68
2017-12-14T13:40:24.163Z,77.50
2017-12-14T13:42:52.919Z,76.76
2017-12-14T13:45:21.254Z,77.67
2017-12-14T13:47:49.531Z,77.31
2017-12-14T13:50:17.927Z,77.67
2017-12-14T13:52:46.167Z,78.08
2017-12-14T13:55:14.523Z,77.79
2017-12-14T13:57:42.820Z,77.53
2017-12-14T14:00:11.076Z,77.14
2017-12-14T14:02:39.429Z,77.27
2017-12-14T14:05:07.699Z,77.45
2017-12-14T14:07:36.032Z,77.12
2017-12-14T14:10:04.400Z,78.05
2017-12-14T14:12:32.662Z,77.45
2017-12-14T14:15:00.944Z,77.56
2017-12-14T14:17:29.214Z,78.38
2017-12-14T14:19:57.501Z,77.94
2017-12-14T14:22:25.766Z,77.96
2017-12-14T14:24:54.059Z,77.84
2017-12-14T14:27:22.327Z,77.75
2017-12-14T14:29:50.813Z,77.32
2017-12-14T14:32:19.098Z,77.39
2017-12-14T14:34:47.355Z,77.40
2017-12-14T14:37:15.669Z,77.62
2017-12-14T14:39:44.096Z,78.02
2017-12-14T14:42:12.367Z,77.54
2017-12-14T14:44:40.662Z,78.48
2017-12-14T14:47:08.971Z,77.42
2017-12-14T14:49:37.228Z,77.69
2017-12-14T14:52:05.692Z,77.90
2017-12-14T14:54:33.967Z,78.58
2017-12-14T14:57:02.269Z,78.23
2017-12-14T14:59:30.564Z,78.61
2017-12-14T15:01:58.865Z,78.43
2017-12-14T15:04:27.144Z,78.23
2017-12-14T15:06:55.440Z,78.19
2017-12-14T15:09:23.710Z,77.46
2017-12-14T15:11:52.025Z,77.79
2017-12-14T15:14:20.274Z,77.72
2017-12-14T15:16:48.596Z,76.80
2017-12-14T15:19:16.874Z,76.84
2017-12-14T15:21:45.170Z,76.87
2017-12-14T15:24:13.467Z,77.40
2017-12-14T15:26:41.743Z,77.06
2017-12-14T15:29:10.126Z,76.44
2017-12-14T15:31:38.415Z,75.88
2017-12-14T15:34:06.779Z,75.29
2017-12-14T15:36:35.067Z,75.67
2017-12-14T15:39:04.174Z,75.90
2017-12-14T15:41:32.525Z,76.06
2017-12-14T15:44:00.782Z,75.58
2017-12-14T15:46:29.047Z,76.07
2017-12-14T15:48:58.279Z,76.09
2017-12-14T15:51:26.539Z,75.86
2017-12-14T15:53:54.841Z,75.85
2017-12-14T15:56:23.123Z,75.65
2017-12-14T15:58:51.484Z,75.85
2017-12-14T16:01:19.731Z,75.55
2017-12-14T16:03:48.021Z,75.49
2017-12-14T16:06:16.307Z,74.92
2017-12-14T16:08:44.555Z,75.06
2017-12-14T16:11:12.875Z,74.77
2017-12-14T16:13:42.031Z,74.65
2017-12-14T16:16:10.391Z,74.00
2017-12-14T16:18:38.625Z,74.01
2017-12-14T16:21:06.935Z,73.59
2017-12-14T16:23:35.198Z,73.49
2017-12-14T16:26:04.343Z,73.75
2017-12-14T16:28:32.888Z,73.69
2017-12-14T16:31:01.147Z,74.39
2017-12-14T16:33:29.453Z,74.01
2017-12-14T16:35:57.721Z,74.19
2017-12-14T16:38:26.375Z,74.20
2017-12-14T16:40:54.636Z,74.55
2017-12-14T16:43:22.926Z,75.49
2017-12-14T16:45:51.189Z,75.35
2017-12-14T16:48:19.463Z,74.82
2017-12-14T16:50:48.527Z,74.41
2017-12-14T16:53:16.848Z,74.10
2017-12-14T16:55:45.123Z,74.04
2017-12-14T16:58:13.468Z,73.43
2017-12-14T17:00:42.252Z,74.96
2017-12-14T17:03:10.500Z,74.67
2017-12-14T17:05:38.913Z,74.58
2017-12-14T17:08:07.557Z,74.19
2017-12-14T17:10:35.860Z,74.55
2017-12-14T17:13:04.188Z,75.12
2017-12-14T17:15:32.448Z,75.52
2017-12-14T17:18:00.789Z,75.71
2017-12-14T17:20:29.095Z,75.83
2017-12-14T17:22:57.361Z,75.72
2017-12-14T17:25:27.003Z,75.90
2017-12-14T17:27:55.233Z,76.47
2017-12-14T17:30:23.550Z,76.91
2017-12-14T17:32:51.822Z,75.99
2017-12-14T17:35:20.198Z,75.69
2017-12-14T17:37:48.515Z,75.16
2017-12-14T17:40:16.798Z,75.27
2017-12-14T17:42:45.123Z,75.57
2017-12-14T17:45:13.418Z,75.24
2017-12-14T17:47:41.711Z,75.06
2017-12-14T17:50:10.099Z,75.93
2017-12-14T17:52:38.353Z,75.61
2017-12-14T17:55:06.627Z,75.17
2017-12-14T17:57:34.935Z,76.08
2017-12-14T18:00:03.209Z,76.29
2017-12-14T18:02:31.505Z,76.62
2017-12-14T18:04:59.806Z,77.25
2017-12-14T18:07:28.131Z,77.32
2017-12-14T18:09:56.458Z,77.34
2017-12-14T18:12:24.742Z,76.40
2017-12-14T18:14:53.049Z,76.57
2017-12-14T18:17:21.325Z,77.29
2017-12-14T18:19:49.574Z,77.48
2017-12-14T18:22:17.868Z,78.52
2017-12-14T18:24:46.253Z,78.25
2017-12-14T18:27:14.511Z,78.16
2017-12-14T18:29:43.204Z,77.33
2017-12-14T18:32:11.467Z,77.66
2017-12-14T18:34:40.485Z,76.92
2017-12-14T18:37:09.053Z,76.53
2017-12-14T18:39:37.332Z,76.48
2017-12-14T18:42:10.648Z,76.84
2017-12-14T18:44:38.997Z,76.92
2017-12-14T18:47:07.283Z,76.60
2017-12-14T18:49:35.556Z,75.48
2017-12-14T18:52:03.927Z,74.94
2017-12-14T18:54:32.324Z,75.32
2017-12-14T18:57:01.625Z,75.76
2017-12-14T18:59:29.879Z,75.98
2017-12-14T19:01:58.202Z,75.86
2017-12-14T19:04:26.464Z,76.78
2017-12-14T19:06:54.770Z,76.59
2017-12-14T19:09:23.081Z,76.60
2017-12-14T19:11:51.393Z,76.65
2017-12-14T19:14:19.664Z,77.33
2017-12-14T19:16:47.956Z,77.21
2017-12-14T19:19:16.240Z,77.66
2017-12-14T19:21:44.592Z,77.16
2017-12-14T19:24:12.843Z,77.68
2017-12-14T19:26:41.132Z,77.84
2017-12-14T19:29:09.426Z,77.80
2017-12-14T19:31:37.671Z,77.30
2017-12-14T19:34:06.063Z,77.08
2017-12-14T19:36:35.187Z,78.04
2017-12-14T19:39:04.443Z,78.08
2017-12-14T19:41:32.732Z,78.48
2017-12-14T19:44:01.023Z,77.80
2017-12-14T19:46:29.317Z,77.69
2017-12-14T19:48:58.584Z,77.96
2017-12-14T19:51:26.859Z,78.26
2017-12-14T19:53:55.162Z,77.34
2017-12-14T19:56:23.401Z,77.46
2017-12-14T19:58:51.687Z,77.57
2017-12-14T20:01:19.985Z,77.46
2017-12-14T20:03:48.239Z,77.65
2017-12-14T20:06:16.513Z,77.33
2017-12-14T20:08:44.798Z,78.00
2017-12-14T20:11:13.369Z,78.32
2017-12-14T20:13:42.297Z,77.76
2017-12-14T20:16:10.628Z,78.27
2017-12-14T20:18:38.918Z,79.10
2017-12-14T20:21:07.295Z,79.21
2017-12-14T20:23:36.455Z,78.82
2017-12-14T20:26:05.282Z,78.92
2017-12-14T20:28:33.560Z,79.09
2017-12-14T20:31:01.826Z,79.07
2017-12-14T20:33:30.124Z,78.91
2017-12-14T20:35:58.388Z,79.35
2017-12-14T20:38:26.679Z,79.33
2017-12-14T20:40:54.941Z,79.87
2017-12-14T20:43:23.225Z,79.71
2017-12-14T20:45:51.477Z,79.75
2017-12-14T20:48:19.783Z,79.41
2017-12-14T20:50:48.031Z,78.77
2017-12-14T20:53:16.323Z,78.16
2017-12-14T20:55:44.580Z,78.68
2017-12-14T20:58:13.077Z,78.48
2017-12-14T21:00:41.997Z,78.13
2017-12-14T21:03:10.264Z,78.55
2017-12-14T21:05:38.536Z,78.17
2017-12-14T21:08:06.874Z,78.63
2017-12-14T21:10:35.175Z,79.01
2017-12-14T21:13:04.455Z,78.82
2017-12-14T21:15:32.747Z,78.56
2017-12-14T21:18:01.019Z,78.63
2017-12-14T21:20:29.315Z,78.41
2017-12-14T21:22:57.586Z,78.71
2017-12-14T21:25:25.868Z,78.41
2017-12-14T21:27:54.141Z,78.36
2017-12-14T21:30:22.421Z,78.26
2017-12-14T21:32:50.701Z,78.26
2017-12-14T21:35:18.985Z,78.70
2017-12-14T21:37:48.143Z,78.61
2017-12-14T21:40:16.431Z,78.21
2017-12-14T21:42:44.697Z,78.45
2017-12-14T21:45:12.984Z,78.21
2017-12-14T21:47:41.279Z,77.81
2017-12-14T21:50:09.588Z,78.02
2017-12-14T21:52:37.915Z,77.74
2017-12-14T21:55:06.213Z,78.15
2017-12-14T21:57:34.756Z,77.75
2017-12-14T22:00:03.091Z,77.81
2017-12-14T22:02:31.380Z,77.70
2017-12-14T22:04:59.635Z,77.75
2017-12-14T22:07:27.931Z,77.40
2017-12-14T22:09:56.189Z,78.01
2017-12-14T22:12:24.475Z,78.33
2017-12-14T22:14:52.727Z,78.26
2017-12-14T22:17:21.069Z,78.58
2017-12-14T22:19:49.394Z,78.70
2017-12-14T22:22:17.664Z,78.80
2017-12-14T22:24:45.981Z,78.18
2017-12-14T22:27:14.216Z,78.19
2017-12-14T22:29:42.478Z,78.34
2017-12-14T22:32:10.747Z,78.45
2017-12-14T22:34:39.042Z,78.48
2017-12-14T22:37:07.304Z,78.79
2017-12-14T22:39:35.618Z,78.47
2017-12-14T22:42:03.872Z,78.83
2017-12-14T22:44:32.152Z,78.58
2017-12-14T22:47:00.415Z,79.37
2017-12-14T22:49:28.709Z,79.70
2017-12-14T22:51:56.983Z,79.37
2017-12-14T22:54:25.260Z,79.07
2017-12-14T22:56:53.564Z,79.01
2017-12-14T22:59:21.823Z,78.95
2017-12-14T23:01:50.119Z,78.59
2017-12-14T23:04:18.372Z,78.57
2017-12-14T23:06:46.687Z,78.37
2017-12-14T23:09:14.955Z,78.64
2017-12-14T23:11:43.240Z,78.01
2017-12-14T23:14:11.496Z,78.20
2017-12-14T23:16:39.775Z,78.09
2017-12-14T23:19:08.043Z,78.06
2017-12-14T23:21:37.132Z,78.23
2017-12-14T23:24:06.222Z,77.98
2017-12-14T23:26:34.500Z,77.91
2017-12-14T23:29:02.780Z,77.89
2017-12-14T23:31:31.018Z,78.11
2017-12-14T23:33:59.322Z,78.25
2017-12-14T23:36:27.551Z,78.13
2017-12-14T23:38:55.888Z,78.18
2017-12-14T23:41:24.110Z,78.39
2017-12-14T23:43:52.400Z,78.60
2017-12-14T23:46:20.656Z,79.00
2017-12-14T23:48:48.950Z,79.47
2017-12-14T23:51:17.225Z,78.94
2017-12-14T23:53:45.469Z,78.38
2017-12-14T23:56:13.762Z,77.90
2017-12-14T23:58:42.020Z,78.29
